sensor_id;sensor_type;location;lat;lon;timestamp;P1;durP1;ratioP1;P2;durP2;ratioP2
7759;SDS011;3924;48.830;9.262;2024-01-10T00:01:16;4.97;;;3.83;;
7759;SDS011;3924;48.830;9.262;2024-01-10T00:03:44;5.03;;;3.90;;
7759;SDS011;3924;48.830;9.262;2024-01-10T00:06:11;4.03;;;3.73;;
7759;SDS011;3924;48.830;9.262;2024-01-10T00:08:37;10.17;;;4.77;;
7759;SDS011;3924;48.830;9.262;2024-01-10T00:11:04;11.50;;;4.50;;
7759;SDS011;3924;48.830;9.262;2024-01-10T00:13:31;4.43;;;3.50;;
7759;SDS011;3924;48.830;9.262;2024-01-10T00:16:00;5.37;;;4.70;;
7759;SDS011;3924;48.830;9.262;2024-01-10T00:18:28;3.80;;;3.40;;
7759;SDS011;3924;48.830;9.262;2024-01-10T00:20:55;4.57;;;3.33;;
7759;SDS011;3924;48.830;9.262;2024-01-10T00:23:22;5.47;;;4.43;;
7759;SDS011;3924;48.830;9.262;2024-01-10T00:25:49;4.33;;;3.03;;
7759;SDS011;3924;48.830;9.262;2024-01-10T00:28:17;9.30;;;4.43;;
7759;SDS011;3924;48.830;9.262;2024-01-10T00:30:45;4.43;;;3.10;;
7759;SDS011;3924;48.830;9.262;2024-01-10T00:33:14;6.43;;;3.33;;
7759;SDS011;3924;48.830;9.262;2024-01-10T00:35:41;7.87;;;3.10;;
7759;SDS011;3924;48.830;9.262;2024-01-10T00:38:08;4.60;;;4.17;;
7759;SDS011;3924;48.830;9.262;2024-01-10T00:40:35;3.47;;;3.10;;
7759;SDS011;3924;48.830;9.262;2024-01-10T00:43:02;6.57;;;3.60;;
7759;SDS011;3924;48.830;9.262;2024-01-10T00:45:30;8.03;;;4.07;;
7759;SDS011;3924;48.830;9.262;2024-01-10T00:47:57;5.47;;;2.77;;
7759;SDS011;3924;48.830;9.262;2024-01-10T00:50:24;3.30;;;2.87;;
7759;SDS011;3924;48.830;9.262;2024-01-10T00:52:51;4.07;;;3.13;;
7759;SDS011;3924;48.830;9.262;2024-01-10T00:55:18;2.90;;;2.70;;
7759;SDS011;3924;48.830;9.262;2024-01-10T00:57:45;3.27;;;2.97;;
7759;SDS011;3924;48.830;9.262;2024-01-10T01:00:12;3.90;;;3.40;;
7759;SDS011;3924;48.830;9.262;2024-01-10T01:02:40;3.40;;;3.10;;
7759;SDS011;3924;48.830;9.262;2024-01-10T01:05:07;2.27;;;2.10;;
7759;SDS011;3924;48.830;9.262;2024-01-10T01:07:34;3.83;;;2.93;;
7759;SDS011;3924;48.830;9.262;2024-01-10T01:10:02;3.83;;;2.80;;
7759;SDS011;3924;48.830;9.262;2024-01-10T01:12:29;3.13;;;2.33;;
7759;SDS011;3924;48.830;9.262;2024-01-10T01:14:56;8.00;;;2.67;;
7759;SDS011;3924;48.830;9.262;2024-01-10T01:17:25;3.83;;;3.43;;
7759;SDS011;3924;48.830;9.262;2024-01-10T01:19:51;4.00;;;3.27;;
7759;SDS011;3924;48.830;9.262;2024-01-10T01:22:18;2.33;;;2.23;;
7759;SDS011;3924;48.830;9.262;2024-01-10T01:24:44;3.13;;;2.77;;
7759;SDS011;3924;48.830;9.262;2024-01-10T01:27:11;4.67;;;3.70;;
7759;SDS011;3924;48.830;9.262;2024-01-10T01:29:38;2.43;;;2.30;;
7759;SDS011;3924;48.830;9.262;2024-01-10T01:32:23;5.23;;;2.87;;
7759;SDS011;3924;48.830;9.262;2024-01-10T01:34:50;3.47;;;2.93;;
7759;SDS011;3924;48.830;9.262;2024-01-10T01:37:16;8.23;;;3.27;;
7759;SDS011;3924;48.830;9.262;2024-01-10T01:39:43;3.40;;;2.87;;
7759;SDS011;3924;48.830;9.262;2024-01-10T01:42:09;6.80;;;3.13;;
7759;SDS011;3924;48.830;9.262;2024-01-10T01:44:37;7.27;;;3.17;;
7759;SDS011;3924;48.830;9.262;2024-01-10T01:47:03;7.53;;;3.17;;
7759;SDS011;3924;48.830;9.262;2024-01-10T01:49:30;2.87;;;2.63;;
7759;SDS011;3924;48.830;9.262;2024-01-10T01:51:57;3.17;;;2.67;;
7759;SDS011;3924;48.830;9.262;2024-01-10T01:54:25;4.73;;;2.97;;
7759;SDS011;3924;48.830;9.262;2024-01-10T01:56:52;5.37;;;3.27;;
7759;SDS011;3924;48.830;9.262;2024-01-10T01:59:19;2.27;;;2.07;;
7759;SDS011;3924;48.830;9.262;2024-01-10T02:01:46;2.77;;;2.57;;
7759;SDS011;3924;48.830;9.262;2024-01-10T02:04:13;5.40;;;3.77;;
7759;SDS011;3924;48.830;9.262;2024-01-10T02:06:40;5.30;;;3.03;;
7759;SDS011;3924;48.830;9.262;2024-01-10T02:09:08;3.30;;;2.97;;
7759;SDS011;3924;48.830;9.262;2024-01-10T02:11:36;5.13;;;3.07;;
7759;SDS011;3924;48.830;9.262;2024-01-10T02:14:02;6.40;;;2.73;;
7759;SDS011;3924;48.830;9.262;2024-01-10T02:16:29;2.37;;;2.27;;
7759;SDS011;3924;48.830;9.262;2024-01-10T02:18:56;4.10;;;2.77;;
7759;SDS011;3924;48.830;9.262;2024-01-10T02:21:23;5.77;;;3.70;;
7759;SDS011;3924;48.830;9.262;2024-01-10T02:23:49;3.73;;;2.20;;
7759;SDS011;3924;48.830;9.262;2024-01-10T02:26:16;2.57;;;2.47;;
7759;SDS011;3924;48.830;9.262;2024-01-10T02:28:43;7.83;;;3.17;;
7759;SDS011;3924;48.830;9.262;2024-01-10T02:31:10;2.73;;;2.27;;
7759;SDS011;3924;48.830;9.262;2024-01-10T02:33:37;4.00;;;3.00;;
7759;SDS011;3924;48.830;9.262;2024-01-10T02:36:04;3.10;;;2.73;;
7759;SDS011;3924;48.830;9.262;2024-01-10T02:38:31;4.50;;;2.47;;
7759;SDS011;3924;48.830;9.262;2024-01-10T02:40:57;4.87;;;2.70;;
7759;SDS011;3924;48.830;9.262;2024-01-10T02:43:24;3.57;;;3.13;;
7759;SDS011;3924;48.830;9.262;2024-01-10T02:45:51;9.57;;;2.60;;
7759;SDS011;3924;48.830;9.262;2024-01-10T02:48:18;4.40;;;3.40;;
7759;SDS011;3924;48.830;9.262;2024-01-10T02:50:44;2.97;;;2.63;;
7759;SDS011;3924;48.830;9.262;2024-01-10T02:53:11;3.23;;;3.03;;
7759;SDS011;3924;48.830;9.262;2024-01-10T02:55:38;4.37;;;3.33;;
7759;SDS011;3924;48.830;9.262;2024-01-10T02:58:04;4.83;;;3.80;;
7759;SDS011;3924;48.830;9.262;2024-01-10T03:00:31;2.60;;;2.40;;
7759;SDS011;3924;48.830;9.262;2024-01-10T03:02:58;2.60;;;2.40;;
7759;SDS011;3924;48.830;9.262;2024-01-10T03:05:25;4.43;;;2.70;;
7759;SDS011;3924;48.830;9.262;2024-01-10T03:07:52;8.13;;;4.17;;
7759;SDS011;3924;48.830;9.262;2024-01-10T03:10:19;3.97;;;2.13;;
7759;SDS011;3924;48.830;9.262;2024-01-10T03:12:46;4.47;;;2.43;;
7759;SDS011;3924;48.830;9.262;2024-01-10T03:15:13;7.33;;;3.90;;
7759;SDS011;3924;48.830;9.262;2024-01-10T03:17:40;3.27;;;3.03;;
7759;SDS011;3924;48.830;9.262;2024-01-10T03:20:07;2.97;;;2.77;;
7759;SDS011;3924;48.830;9.262;2024-01-10T03:22:35;2.67;;;2.13;;
7759;SDS011;3924;48.830;9.262;2024-01-10T03:25:01;6.43;;;2.83;;
7759;SDS011;3924;48.830;9.262;2024-01-10T03:27:29;3.27;;;2.73;;
7759;SDS011;3924;48.830;9.262;2024-01-10T03:29:55;3.20;;;2.87;;
7759;SDS011;3924;48.830;9.262;2024-01-10T03:32:22;2.97;;;2.70;;
7759;SDS011;3924;48.830;9.262;2024-01-10T03:34:50;3.97;;;3.23;;
7759;SDS011;3924;48.830;9.262;2024-01-10T03:37:18;2.97;;;2.73;;
7759;SDS011;3924;48.830;9.262;2024-01-10T03:39:45;2.93;;;2.73;;
7759;SDS011;3924;48.830;9.262;2024-01-10T03:42:11;3.30;;;1.77;;
7759;SDS011;3924;48.830;9.262;2024-01-10T03:44:38;4.83;;;3.77;;
7759;SDS011;3924;48.830;9.262;2024-01-10T03:47:05;7.30;;;3.20;;
7759;SDS011;3924;48.830;9.262;2024-01-10T03:49:33;2.70;;;2.50;;
7759;SDS011;3924;48.830;9.262;2024-01-10T03:51:59;5.27;;;2.83;;
7759;SDS011;3924;48.830;9.262;2024-01-10T03:54:26;7.07;;;3.20;;
7759;SDS011;3924;48.830;9.262;2024-01-10T03:56:55;4.23;;;3.10;;
7759;SDS011;3924;48.830;9.262;2024-01-10T03:59:22;2.70;;;2.50;;
7759;SDS011;3924;48.830;9.262;2024-01-10T04:01:48;2.77;;;2.63;;
7759;SDS011;3924;48.830;9.262;2024-01-10T04:04:15;2.40;;;2.20;;
7759;SDS011;3924;48.830;9.262;2024-01-10T04:06:42;11.90;;;1.93;;
7759;SDS011;3924;48.830;9.262;2024-01-10T04:09:08;2.97;;;2.73;;
7759;SDS011;3924;48.830;9.262;2024-01-10T04:11:36;3.53;;;2.80;;
7759;SDS011;3924;48.830;9.262;2024-01-10T04:14:04;2.33;;;2.13;;
7759;SDS011;3924;48.830;9.262;2024-01-10T04:16:31;5.17;;;3.83;;
7759;SDS011;3924;48.830;9.262;2024-01-10T04:18:58;2.83;;;1.77;;
7759;SDS011;3924;48.830;9.262;2024-01-10T04:21:24;2.47;;;2.33;;
7759;SDS011;3924;48.830;9.262;2024-01-10T04:23:51;2.33;;;2.13;;
7759;SDS011;3924;48.830;9.262;2024-01-10T04:26:21;5.53;;;4.03;;
7759;SDS011;3924;48.830;9.262;2024-01-10T04:28:47;2.90;;;2.70;;
7759;SDS011;3924;48.830;9.262;2024-01-10T04:31:14;3.10;;;2.90;;
7759;SDS011;3924;48.830;9.262;2024-01-10T04:33:41;7.60;;;3.60;;
7759;SDS011;3924;48.830;9.262;2024-01-10T04:36:07;3.20;;;2.90;;
7759;SDS011;3924;48.830;9.262;2024-01-10T04:38:34;3.13;;;2.83;;
7759;SDS011;3924;48.830;9.262;2024-01-10T04:41:01;2.80;;;2.60;;
7759;SDS011;3924;48.830;9.262;2024-01-10T04:43:28;1.93;;;1.77;;
7759;SDS011;3924;48.830;9.262;2024-01-10T04:45:55;1.80;;;1.70;;
7759;SDS011;3924;48.830;9.262;2024-01-10T04:48:22;4.83;;;3.33;;
7759;SDS011;3924;48.830;9.262;2024-01-10T04:50:50;5.97;;;2.70;;
7759;SDS011;3924;48.830;9.262;2024-01-10T04:53:16;7.10;;;2.97;;
7759;SDS011;3924;48.830;9.262;2024-01-10T04:55:43;2.53;;;2.33;;
7759;SDS011;3924;48.830;9.262;2024-01-10T04:58:11;1.80;;;1.63;;
7759;SDS011;3924;48.830;9.262;2024-01-10T05:00:38;3.13;;;2.73;;
7759;SDS011;3924;48.830;9.262;2024-01-10T05:03:04;2.40;;;2.20;;
7759;SDS011;3924;48.830;9.262;2024-01-10T05:05:31;3.30;;;3.10;;
7759;SDS011;3924;48.830;9.262;2024-01-10T05:07:58;6.63;;;3.30;;
7759;SDS011;3924;48.830;9.262;2024-01-10T05:10:25;11.90;;;3.50;;
7759;SDS011;3924;48.830;9.262;2024-01-10T05:12:51;3.87;;;2.00;;
7759;SDS011;3924;48.830;9.262;2024-01-10T05:15:18;2.27;;;2.17;;
7759;SDS011;3924;48.830;9.262;2024-01-10T05:17:45;5.57;;;2.93;;
7759;SDS011;3924;48.830;9.262;2024-01-10T05:20:12;4.60;;;2.67;;
7759;SDS011;3924;48.830;9.262;2024-01-10T05:22:42;3.43;;;3.13;;
7759;SDS011;3924;48.830;9.262;2024-01-10T05:25:11;5.43;;;4.17;;
7759;SDS011;3924;48.830;9.262;2024-01-10T05:27:38;2.87;;;2.37;;
7759;SDS011;3924;48.830;9.262;2024-01-10T05:30:04;2.77;;;2.57;;
7759;SDS011;3924;48.830;9.262;2024-01-10T05:32:31;4.70;;;2.70;;
7759;SDS011;3924;48.830;9.262;2024-01-10T05:34:58;3.27;;;3.03;;
7759;SDS011;3924;48.830;9.262;2024-01-10T05:37:25;5.70;;;3.47;;
7759;SDS011;3924;48.830;9.262;2024-01-10T05:39:51;3.03;;;2.83;;
7759;SDS011;3924;48.830;9.262;2024-01-10T05:42:18;2.67;;;2.13;;
7759;SDS011;3924;48.830;9.262;2024-01-10T05:44:45;4.27;;;2.87;;
7759;SDS011;3924;48.830;9.262;2024-01-10T05:47:12;2.97;;;2.57;;
7759;SDS011;3924;48.830;9.262;2024-01-10T05:49:39;2.83;;;2.63;;
7759;SDS011;3924;48.830;9.262;2024-01-10T05:52:06;6.83;;;3.83;;
7759;SDS011;3924;48.830;9.262;2024-01-10T05:54:33;4.23;;;3.40;;
7759;SDS011;3924;48.830;9.262;2024-01-10T05:57:00;3.60;;;2.87;;
7759;SDS011;3924;48.830;9.262;2024-01-10T05:59:29;3.50;;;2.30;;
7759;SDS011;3924;48.830;9.262;2024-01-10T06:01:57;3.00;;;2.17;;
7759;SDS011;3924;48.830;9.262;2024-01-10T06:04:25;3.40;;;2.70;;
7759;SDS011;3924;48.830;9.262;2024-01-10T06:06:54;8.93;;;3.23;;
7759;SDS011;3924;48.830;9.262;2024-01-10T06:09:21;2.40;;;2.23;;
7759;SDS011;3924;48.830;9.262;2024-01-10T06:11:49;3.23;;;2.37;;
7759;SDS011;3924;48.830;9.262;2024-01-10T06:14:16;2.87;;;2.67;;
7759;SDS011;3924;48.830;9.262;2024-01-10T06:16:58;4.57;;;2.23;;
7759;SDS011;3924;48.830;9.262;2024-01-10T06:19:26;8.40;;;2.90;;
7759;SDS011;3924;48.830;9.262;2024-01-10T06:21:53;3.80;;;2.37;;
7759;SDS011;3924;48.830;9.262;2024-01-10T06:24:20;4.77;;;3.27;;
7759;SDS011;3924;48.830;9.262;2024-01-10T06:26:48;2.17;;;2.07;;
7759;SDS011;3924;48.830;9.262;2024-01-10T06:29:16;2.90;;;2.33;;
7759;SDS011;3924;48.830;9.262;2024-01-10T06:31:44;4.20;;;2.97;;
7759;SDS011;3924;48.830;9.262;2024-01-10T06:34:11;4.23;;;2.60;;
7759;SDS011;3924;48.830;9.262;2024-01-10T06:36:38;5.43;;;3.33;;
7759;SDS011;3924;48.830;9.262;2024-01-10T06:39:05;1.80;;;1.73;;
7759;SDS011;3924;48.830;9.262;2024-01-10T06:41:32;10.63;;;2.50;;
7759;SDS011;3924;48.830;9.262;2024-01-10T06:43:58;8.20;;;4.72;;
7759;SDS011;3924;48.830;9.262;2024-01-10T06:46:30;5.33;;;3.77;;
7759;SDS011;3924;48.830;9.262;2024-01-10T06:48:59;9.57;;;5.07;;
7759;SDS011;3924;48.830;9.262;2024-01-10T06:51:26;3.17;;;2.47;;
7759;SDS011;3924;48.830;9.262;2024-01-10T06:53:53;5.77;;;3.33;;
7759;SDS011;3924;48.830;9.262;2024-01-10T06:56:26;7.27;;;2.63;;
7759;SDS011;3924;48.830;9.262;2024-01-10T06:58:53;3.10;;;2.57;;
7759;SDS011;3924;48.830;9.262;2024-01-10T07:01:22;9.40;;;3.40;;
7759;SDS011;3924;48.830;9.262;2024-01-10T07:03:49;10.13;;;3.70;;
7759;SDS011;3924;48.830;9.262;2024-01-10T07:06:15;3.27;;;3.03;;
7759;SDS011;3924;48.830;9.262;2024-01-10T07:08:42;3.17;;;2.13;;
7759;SDS011;3924;48.830;9.262;2024-01-10T07:11:11;2.90;;;2.70;;
7759;SDS011;3924;48.830;9.262;2024-01-10T07:13:38;3.43;;;2.77;;
7759;SDS011;3924;48.830;9.262;2024-01-10T07:16:06;1.87;;;1.77;;
7759;SDS011;3924;48.830;9.262;2024-01-10T07:18:34;4.40;;;2.13;;
7759;SDS011;3924;48.830;9.262;2024-01-10T07:21:01;2.03;;;1.93;;
7759;SDS011;3924;48.830;9.262;2024-01-10T07:23:29;7.03;;;3.27;;
7759;SDS011;3924;48.830;9.262;2024-01-10T07:25:58;4.33;;;2.60;;
7759;SDS011;3924;48.830;9.262;2024-01-10T07:28:26;2.60;;;2.03;;
7759;SDS011;3924;48.830;9.262;2024-01-10T07:30:53;6.10;;;3.73;;
7759;SDS011;3924;48.830;9.262;2024-01-10T07:33:21;4.40;;;3.30;;
7759;SDS011;3924;48.830;9.262;2024-01-10T07:35:48;3.97;;;3.17;;
7759;SDS011;3924;48.830;9.262;2024-01-10T07:38:15;3.77;;;3.40;;
7759;SDS011;3924;48.830;9.262;2024-01-10T07:40:41;2.53;;;2.40;;
7759;SDS011;3924;48.830;9.262;2024-01-10T07:43:08;3.30;;;2.10;;
7759;SDS011;3924;48.830;9.262;2024-01-10T07:45:37;6.13;;;3.00;;
7759;SDS011;3924;48.830;9.262;2024-01-10T07:48:04;3.27;;;2.53;;
7759;SDS011;3924;48.830;9.262;2024-01-10T07:50:31;2.87;;;2.53;;
7759;SDS011;3924;48.830;9.262;2024-01-10T07:52:58;3.47;;;3.13;;
7759;SDS011;3924;48.830;9.262;2024-01-10T07:55:24;3.87;;;3.13;;
7759;SDS011;3924;48.830;9.262;2024-01-10T07:57:52;1.97;;;1.87;;
7759;SDS011;3924;48.830;9.262;2024-01-10T08:00:19;2.27;;;2.07;;
7759;SDS011;3924;48.830;9.262;2024-01-10T08:02:46;4.30;;;3.17;;
7759;SDS011;3924;48.830;9.262;2024-01-10T08:05:13;3.67;;;2.87;;
7759;SDS011;3924;48.830;9.262;2024-01-10T08:07:40;2.83;;;2.60;;
7759;SDS011;3924;48.830;9.262;2024-01-10T08:10:08;7.87;;;3.90;;
7759;SDS011;3924;48.830;9.262;2024-01-10T08:12:41;7.30;;;3.47;;
7759;SDS011;3924;48.830;9.262;2024-01-10T08:15:08;4.07;;;3.03;;
7759;SDS011;3924;48.830;9.262;2024-01-10T08:17:34;4.43;;;3.20;;
7759;SDS011;3924;48.830;9.262;2024-01-10T08:20:05;5.30;;;3.37;;
7759;SDS011;3924;48.830;9.262;2024-01-10T08:22:37;5.93;;;3.67;;
7759;SDS011;3924;48.830;9.262;2024-01-10T08:25:04;5.00;;;2.80;;
7759;SDS011;3924;48.830;9.262;2024-01-10T08:27:32;5.70;;;3.33;;
7759;SDS011;3924;48.830;9.262;2024-01-10T08:29:59;4.43;;;3.10;;
7759;SDS011;3924;48.830;9.262;2024-01-10T08:32:26;4.17;;;3.37;;
7759;SDS011;3924;48.830;9.262;2024-01-10T08:34:54;5.37;;;3.03;;
7759;SDS011;3924;48.830;9.262;2024-01-10T08:37:21;11.13;;;3.17;;
7759;SDS011;3924;48.830;9.262;2024-01-10T08:39:48;3.80;;;3.27;;
7759;SDS011;3924;48.830;9.262;2024-01-10T08:42:34;4.20;;;2.43;;
7759;SDS011;3924;48.830;9.262;2024-01-10T08:45:01;5.93;;;3.03;;
7759;SDS011;3924;48.830;9.262;2024-01-10T08:47:27;6.57;;;2.63;;
7759;SDS011;3924;48.830;9.262;2024-01-10T08:49:58;7.50;;;3.13;;
7759;SDS011;3924;48.830;9.262;2024-01-10T08:52:25;4.20;;;2.43;;
7759;SDS011;3924;48.830;9.262;2024-01-10T08:54:55;5.80;;;3.00;;
7759;SDS011;3924;48.830;9.262;2024-01-10T08:57:22;4.13;;;3.57;;
7759;SDS011;3924;48.830;9.262;2024-01-10T08:59:50;3.63;;;2.90;;
7759;SDS011;3924;48.830;9.262;2024-01-10T09:02:17;3.73;;;3.43;;
7759;SDS011;3924;48.830;9.262;2024-01-10T09:04:43;10.77;;;2.80;;
7759;SDS011;3924;48.830;9.262;2024-01-10T09:07:11;3.47;;;2.60;;
7759;SDS011;3924;48.830;9.262;2024-01-10T09:09:37;2.57;;;2.37;;
7759;SDS011;3924;48.830;9.262;2024-01-10T09:12:04;3.73;;;3.10;;
7759;SDS011;3924;48.830;9.262;2024-01-10T09:14:31;4.40;;;3.63;;
7759;SDS011;3924;48.830;9.262;2024-01-10T09:16:58;4.10;;;3.20;;
7759;SDS011;3924;48.830;9.262;2024-01-10T09:19:29;7.97;;;3.27;;
7759;SDS011;3924;48.830;9.262;2024-01-10T09:21:57;4.93;;;3.67;;
7759;SDS011;3924;48.830;9.262;2024-01-10T09:24:23;4.17;;;3.40;;
7759;SDS011;3924;48.830;9.262;2024-01-10T09:26:55;3.53;;;3.33;;
7759;SDS011;3924;48.830;9.262;2024-01-10T09:29:23;4.33;;;3.83;;
7759;SDS011;3924;48.830;9.262;2024-01-10T09:31:55;3.43;;;3.23;;
7759;SDS011;3924;48.830;9.262;2024-01-10T09:34:24;7.73;;;4.57;;
7759;SDS011;3924;48.830;9.262;2024-01-10T09:36:54;5.87;;;4.60;;
7759;SDS011;3924;48.830;9.262;2024-01-10T09:39:21;3.23;;;2.93;;
7759;SDS011;3924;48.830;9.262;2024-01-10T09:41:48;5.80;;;3.80;;
7759;SDS011;3924;48.830;9.262;2024-01-10T09:44:18;8.70;;;4.23;;
7759;SDS011;3924;48.830;9.262;2024-01-10T09:46:52;3.97;;;3.57;;
7759;SDS011;3924;48.830;9.262;2024-01-10T09:49:21;3.33;;;3.03;;
7759;SDS011;3924;48.830;9.262;2024-01-10T09:51:49;9.27;;;4.03;;
7759;SDS011;3924;48.830;9.262;2024-01-10T09:54:16;7.13;;;3.10;;
7759;SDS011;3924;48.830;9.262;2024-01-10T09:56:49;4.33;;;4.00;;
7759;SDS011;3924;48.830;9.262;2024-01-10T09:59:35;2.70;;;2.50;;
7759;SDS011;3924;48.830;9.262;2024-01-10T10:02:02;5.13;;;4.23;;
7759;SDS011;3924;48.830;9.262;2024-01-10T10:04:30;4.97;;;3.03;;
7759;SDS011;3924;48.830;9.262;2024-01-10T10:07:03;8.20;;;4.90;;
7759;SDS011;3924;48.830;9.262;2024-01-10T10:09:30;3.70;;;3.30;;
7759;SDS011;3924;48.830;9.262;2024-01-10T10:11:59;4.00;;;3.10;;
7759;SDS011;3924;48.830;9.262;2024-01-10T10:14:29;5.10;;;4.40;;
7759;SDS011;3924;48.830;9.262;2024-01-10T10:17:03;4.77;;;3.83;;
7759;SDS011;3924;48.830;9.262;2024-01-10T10:19:41;7.10;;;2.60;;
7759;SDS011;3924;48.830;9.262;2024-01-10T10:22:08;4.03;;;3.73;;
7759;SDS011;3924;48.830;9.262;2024-01-10T10:24:36;3.27;;;2.97;;
7759;SDS011;3924;48.830;9.262;2024-01-10T10:27:10;6.53;;;3.57;;
7759;SDS011;3924;48.830;9.262;2024-01-10T10:29:39;5.33;;;3.97;;
7759;SDS011;3924;48.830;9.262;2024-01-10T10:32:06;5.10;;;4.30;;
7759;SDS011;3924;48.830;9.262;2024-01-10T10:34:35;8.20;;;3.37;;
7759;SDS011;3924;48.830;9.262;2024-01-10T10:37:02;3.13;;;2.60;;
7759;SDS011;3924;48.830;9.262;2024-01-10T10:39:30;4.17;;;3.77;;
7759;SDS011;3924;48.830;9.262;2024-01-10T10:41:57;4.73;;;3.63;;
7759;SDS011;3924;48.830;9.262;2024-01-10T10:44:24;6.13;;;4.13;;
7759;SDS011;3924;48.830;9.262;2024-01-10T10:46:54;4.87;;;4.07;;
7759;SDS011;3924;48.830;9.262;2024-01-10T10:49:47;12.60;;;3.83;;
7759;SDS011;3924;48.830;9.262;2024-01-10T10:52:21;5.63;;;3.13;;
7759;SDS011;3924;48.830;9.262;2024-01-10T10:54:50;5.27;;;4.57;;
7759;SDS011;3924;48.830;9.262;2024-01-10T10:57:21;12.13;;;5.07;;
7759;SDS011;3924;48.830;9.262;2024-01-10T10:59:51;4.33;;;3.93;;
7759;SDS011;3924;48.830;9.262;2024-01-10T11:02:20;4.07;;;3.13;;
7759;SDS011;3924;48.830;9.262;2024-01-10T11:04:56;4.97;;;4.57;;
7759;SDS011;3924;48.830;9.262;2024-01-10T11:07:24;4.17;;;3.00;;
7759;SDS011;3924;48.830;9.262;2024-01-10T11:09:52;7.00;;;4.20;;
7759;SDS011;3924;48.830;9.262;2024-01-10T11:12:27;7.07;;;3.77;;
7759;SDS011;3924;48.830;9.262;2024-01-10T11:18:18;5.23;;;3.13;;
7759;SDS011;3924;48.830;9.262;2024-01-10T11:21:11;7.00;;;3.00;;
7759;SDS011;3924;48.830;9.262;2024-01-10T11:23:58;9.57;;;4.67;;
7759;SDS011;3924;48.830;9.262;2024-01-10T11:26:27;2.57;;;2.33;;
7759;SDS011;3924;48.830;9.262;2024-01-10T11:28:54;9.17;;;4.13;;
7759;SDS011;3924;48.830;9.262;2024-01-10T11:31:30;4.57;;;3.90;;
7759;SDS011;3924;48.830;9.262;2024-01-10T11:33:59;6.77;;;3.67;;
7759;SDS011;3924;48.830;9.262;2024-01-10T11:36:27;5.67;;;5.07;;
7759;SDS011;3924;48.830;9.262;2024-01-10T11:38:57;4.87;;;3.57;;
7759;SDS011;3924;48.830;9.262;2024-01-10T11:41:29;4.37;;;3.13;;
7759;SDS011;3924;48.830;9.262;2024-01-10T11:46:37;4.00;;;3.63;;
7759;SDS011;3924;48.830;9.262;2024-01-10T11:49:08;3.60;;;3.30;;
7759;SDS011;3924;48.830;9.262;2024-01-10T11:51:36;8.37;;;5.53;;
7759;SDS011;3924;48.830;9.262;2024-01-10T11:54:03;7.17;;;3.10;;
7759;SDS011;3924;48.830;9.262;2024-01-10T11:56:41;3.97;;;3.63;;
7759;SDS011;3924;48.830;9.262;2024-01-10T11:59:15;7.57;;;4.57;;
7759;SDS011;3924;48.830;9.262;2024-01-10T12:01:44;5.43;;;5.03;;
7759;SDS011;3924;48.830;9.262;2024-01-10T12:04:11;7.07;;;4.83;;
7759;SDS011;3924;48.830;9.262;2024-01-10T12:06:52;3.10;;;2.90;;
7759;SDS011;3924;48.830;9.262;2024-01-10T12:09:21;8.10;;;5.87;;
7759;SDS011;3924;48.830;9.262;2024-01-10T12:11:48;9.63;;;6.43;;
7759;SDS011;3924;48.830;9.262;2024-01-10T12:14:16;17.53;;;5.60;;
7759;SDS011;3924;48.830;9.262;2024-01-10T12:16:43;11.53;;;4.63;;
7759;SDS011;3924;48.830;9.262;2024-01-10T12:19:10;4.37;;;3.43;;
7759;SDS011;3924;48.830;9.262;2024-01-10T12:21:37;7.93;;;4.40;;
7759;SDS011;3924;48.830;9.262;2024-01-10T12:24:06;5.13;;;4.63;;
7759;SDS011;3924;48.830;9.262;2024-01-10T12:26:32;7.10;;;5.57;;
7759;SDS011;3924;48.830;9.262;2024-01-10T12:29:02;9.13;;;5.40;;
7759;SDS011;3924;48.830;9.262;2024-01-10T12:31:30;6.23;;;5.07;;
7759;SDS011;3924;48.830;9.262;2024-01-10T12:34:00;5.60;;;4.57;;
7759;SDS011;3924;48.830;9.262;2024-01-10T12:36:31;7.83;;;5.53;;
7759;SDS011;3924;48.830;9.262;2024-01-10T12:38:58;9.27;;;5.27;;
7759;SDS011;3924;48.830;9.262;2024-01-10T12:41:26;8.47;;;6.00;;
7759;SDS011;3924;48.830;9.262;2024-01-10T12:43:53;10.97;;;5.37;;
7759;SDS011;3924;48.830;9.262;2024-01-10T12:46:22;6.27;;;3.93;;
7759;SDS011;3924;48.830;9.262;2024-01-10T12:48:59;7.43;;;4.30;;
7759;SDS011;3924;48.830;9.262;2024-01-10T12:51:31;11.43;;;4.63;;
7759;SDS011;3924;48.830;9.262;2024-01-10T12:54:00;7.00;;;6.03;;
7759;SDS011;3924;48.830;9.262;2024-01-10T12:56:27;5.63;;;4.93;;
7759;SDS011;3924;48.830;9.262;2024-01-10T12:58:54;4.87;;;4.27;;
7759;SDS011;3924;48.830;9.262;2024-01-10T13:01:24;7.63;;;5.90;;
7759;SDS011;3924;48.830;9.262;2024-01-10T13:03:52;6.67;;;4.33;;
7759;SDS011;3924;48.830;9.262;2024-01-10T13:06:21;5.13;;;4.37;;
7759;SDS011;3924;48.830;9.262;2024-01-10T13:08:49;5.37;;;3.87;;
7759;SDS011;3924;48.830;9.262;2024-01-10T13:11:17;16.40;;;5.17;;
7759;SDS011;3924;48.830;9.262;2024-01-10T13:13:44;7.67;;;4.70;;
7759;SDS011;3924;48.830;9.262;2024-01-10T13:16:11;10.10;;;4.93;;
7759;SDS011;3924;48.830;9.262;2024-01-10T13:18:39;6.80;;;4.10;;
7759;SDS011;3924;48.830;9.262;2024-01-10T13:21:06;4.90;;;4.03;;
7759;SDS011;3924;48.830;9.262;2024-01-10T13:23:34;8.57;;;4.27;;
7759;SDS011;3924;48.830;9.262;2024-01-10T13:26:03;3.80;;;3.30;;
7759;SDS011;3924;48.830;9.262;2024-01-10T13:28:31;5.80;;;4.60;;
7759;SDS011;3924;48.830;9.262;2024-01-10T13:31:00;10.82;;;6.68;;
7759;SDS011;3924;48.830;9.262;2024-01-10T13:33:27;6.30;;;5.70;;
7759;SDS011;3924;48.830;9.262;2024-01-10T13:35:56;7.30;;;4.67;;
7759;SDS011;3924;48.830;9.262;2024-01-10T13:38:30;5.47;;;4.97;;
7759;SDS011;3924;48.830;9.262;2024-01-10T13:40:57;5.37;;;4.63;;
7759;SDS011;3924;48.830;9.262;2024-01-10T13:43:25;7.13;;;4.37;;
7759;SDS011;3924;48.830;9.262;2024-01-10T13:45:51;10.57;;;6.63;;
7759;SDS011;3924;48.830;9.262;2024-01-10T13:48:18;5.97;;;4.30;;
7759;SDS011;3924;48.830;9.262;2024-01-10T13:50:45;6.93;;;5.47;;
7759;SDS011;3924;48.830;9.262;2024-01-10T13:53:15;11.53;;;6.30;;
7759;SDS011;3924;48.830;9.262;2024-01-10T13:56:01;9.10;;;5.23;;
7759;SDS011;3924;48.830;9.262;2024-01-10T13:58:29;9.13;;;5.30;;
7759;SDS011;3924;48.830;9.262;2024-01-10T14:00:57;5.90;;;5.00;;
7759;SDS011;3924;48.830;9.262;2024-01-10T14:03:25;7.13;;;5.07;;
7759;SDS011;3924;48.830;9.262;2024-01-10T14:05:57;5.23;;;4.53;;
7759;SDS011;3924;48.830;9.262;2024-01-10T14:08:23;8.83;;;4.97;;
7759;SDS011;3924;48.830;9.262;2024-01-10T14:10:51;11.20;;;6.60;;
7759;SDS011;3924;48.830;9.262;2024-01-10T14:13:20;6.43;;;4.83;;
7759;SDS011;3924;48.830;9.262;2024-01-10T14:15:47;10.07;;;5.60;;
7759;SDS011;3924;48.830;9.262;2024-01-10T14:18:14;8.53;;;4.37;;
7759;SDS011;3924;48.830;9.262;2024-01-10T14:20:40;9.50;;;5.43;;
7759;SDS011;3924;48.830;9.262;2024-01-10T14:23:08;7.20;;;4.37;;
7759;SDS011;3924;48.830;9.262;2024-01-10T14:25:35;8.50;;;5.43;;
7759;SDS011;3924;48.830;9.262;2024-01-10T14:28:03;6.63;;;5.03;;
7759;SDS011;3924;48.830;9.262;2024-01-10T14:30:31;7.60;;;6.30;;
7759;SDS011;3924;48.830;9.262;2024-01-10T14:32:59;8.07;;;6.00;;
7759;SDS011;3924;48.830;9.262;2024-01-10T14:35:29;4.47;;;4.03;;
7759;SDS011;3924;48.830;9.262;2024-01-10T14:37:56;8.77;;;6.10;;
7759;SDS011;3924;48.830;9.262;2024-01-10T14:40:23;5.27;;;4.67;;
7759;SDS011;3924;48.830;9.262;2024-01-10T14:42:50;15.30;;;5.57;;
7759;SDS011;3924;48.830;9.262;2024-01-10T14:45:17;5.00;;;4.47;;
7759;SDS011;3924;48.830;9.262;2024-01-10T14:47:46;11.37;;;5.10;;
7759;SDS011;3924;48.830;9.262;2024-01-10T14:50:13;12.03;;;4.60;;
7759;SDS011;3924;48.830;9.262;2024-01-10T14:52:40;8.97;;;6.70;;
7759;SDS011;3924;48.830;9.262;2024-01-10T14:55:07;10.53;;;4.93;;
7759;SDS011;3924;48.830;9.262;2024-01-10T14:57:35;7.20;;;3.77;;
7759;SDS011;3924;48.830;9.262;2024-01-10T15:00:01;12.00;;;6.50;;
7759;SDS011;3924;48.830;9.262;2024-01-10T15:02:29;10.93;;;5.07;;
7759;SDS011;3924;48.830;9.262;2024-01-10T15:04:55;9.23;;;4.70;;
7759;SDS011;3924;48.830;9.262;2024-01-10T15:07:25;9.57;;;5.03;;
7759;SDS011;3924;48.830;9.262;2024-01-10T15:09:52;8.00;;;3.50;;
7759;SDS011;3924;48.830;9.262;2024-01-10T15:12:19;6.67;;;5.67;;
7759;SDS011;3924;48.830;9.262;2024-01-10T15:14:46;6.63;;;4.70;;
7759;SDS011;3924;48.830;9.262;2024-01-10T15:17:13;3.87;;;3.57;;
7759;SDS011;3924;48.830;9.262;2024-01-10T15:19:46;6.30;;;5.37;;
7759;SDS011;3924;48.830;9.262;2024-01-10T15:22:12;9.40;;;5.37;;
7759;SDS011;3924;48.830;9.262;2024-01-10T15:24:40;12.13;;;5.33;;
7759;SDS011;3924;48.830;9.262;2024-01-10T15:27:09;6.33;;;5.03;;